createdAt,value
2022-07-31T00:00:37.049Z,12.73
2022-07-31T00:03:05.818Z,15.13
2022-07-31T00:05:38.637Z,10.43
2022-07-31T00:08:10.742Z,12.10
2022-07-31T00:10:39.743Z,13.98
2022-07-31T00:13:10.434Z,12.52
2022-07-31T00:15:40.411Z,11.90
2022-07-31T00:21:02.667Z,15.68
2022-07-31T00:23:31.561Z,11.73
2022-07-31T00:26:00.208Z,14.45
2022-07-31T00:28:30.299Z,11.93
2022-07-31T00:30:58.932Z,15.98
2022-07-31T00:33:28.145Z,10.20
2022-07-31T00:35:56.807Z,15.40
2022-07-31T00:38:27.631Z,12.05
2022-07-31T00:41:21.334Z,14.15
2022-07-31T00:43:51.534Z,13.50
2022-07-31T00:46:20.154Z,15.20
2022-07-31T00:48:51.865Z,11.82
2022-07-31T00:51:20.978Z,12.57
2022-07-31T00:53:50.420Z,12.50
2022-07-31T00:56:19.061Z,14.10
2022-07-31T00:58:48.027Z,12.32
2022-07-31T01:01:18.157Z,10.23
2022-07-31T01:03:47.104Z,11.65
2022-07-31T01:06:16.393Z,12.43
2022-07-31T01:08:45.136Z,12.38
2022-07-31T01:11:41.384Z,15.80
2022-07-31T01:14:34.021Z,13.77
2022-07-31T01:17:05.213Z,13.50
2022-07-31T01:19:42.648Z,13.70
2022-07-31T01:22:33.299Z,14.75
2022-07-31T01:25:11.146Z,10.63
2022-07-31T01:28:01.214Z,10.77
2022-07-31T01:30:34.989Z,11.07
2022-07-31T01:33:08.620Z,11.60
2022-07-31T01:35:42.400Z,14.23
2022-07-31T01:38:18.999Z,14.07
2022-07-31T01:40:57.972Z,15.27
2022-07-31T01:43:28.750Z,14.07
2022-07-31T01:46:00.923Z,13.57
2022-07-31T01:48:30.779Z,19.10
2022-07-31T01:51:29.294Z,13.20
2022-07-31T01:53:59.074Z,12.80
2022-07-31T01:56:28.591Z,14.13
2022-07-31T01:58:58.195Z,11.50
2022-07-31T02:01:45.750Z,13.60
2022-07-31T02:04:40.454Z,9.90
2022-07-31T02:07:09.472Z,12.85
2022-07-31T02:09:57.912Z,10.85
2022-07-31T02:12:32.192Z,10.95
2022-07-31T02:15:23.157Z,10.20
2022-07-31T02:17:54.533Z,9.82
2022-07-31T02:20:29.557Z,10.57
2022-07-31T02:22:59.475Z,11.75
2022-07-31T02:25:28.863Z,9.80
2022-07-31T02:27:59.442Z,12.45
2022-07-31T02:33:30.359Z,14.65
2022-07-31T02:36:00.330Z,12.77
2022-07-31T02:38:29.652Z,13.05
2022-07-31T02:41:00.619Z,13.40
2022-07-31T02:43:33.319Z,10.82
2022-07-31T02:46:08.124Z,13.45
2022-07-31T02:48:38.566Z,10.27
2022-07-31T02:51:11.028Z,10.48
2022-07-31T02:53:41.684Z,10.82
2022-07-31T02:56:11.546Z,12.60
2022-07-31T02:58:43.364Z,12.35
2022-07-31T03:01:25.916Z,9.30
2022-07-31T03:03:56.698Z,12.48
2022-07-31T03:06:25.653Z,11.30
2022-07-31T03:08:54.298Z,13.32
2022-07-31T03:11:28.114Z,11.63
2022-07-31T03:13:59.158Z,9.85
2022-07-31T03:16:28.434Z,14.35
2022-07-31T03:18:59.292Z,12.02
2022-07-31T03:21:27.952Z,10.73
2022-07-31T03:23:56.847Z,16.08
2022-07-31T03:26:25.666Z,13.00
2022-07-31T03:28:56.670Z,11.32
2022-07-31T03:31:31.396Z,11.35
2022-07-31T03:36:33.385Z,11.32
2022-07-31T03:39:04.420Z,15.68
2022-07-31T03:41:38.332Z,12.63
2022-07-31T03:44:07.481Z,11.32
2022-07-31T03:46:36.289Z,12.65
2022-07-31T03:49:09.549Z,12.40
2022-07-31T03:51:38.768Z,14.32
2022-07-31T03:54:09.168Z,10.68
2022-07-31T03:56:54.154Z,10.82
2022-07-31T03:59:36.670Z,13.85
2022-07-31T04:02:33.877Z,12.95
2022-07-31T04:05:10.284Z,13.68
2022-07-31T04:07:42.363Z,13.75
2022-07-31T04:10:13.630Z,15.60
2022-07-31T04:12:42.546Z,13.40
2022-07-31T04:15:12.059Z,13.82
2022-07-31T04:17:40.743Z,15.35
2022-07-31T04:20:13.065Z,13.77
2022-07-31T04:23:07.112Z,13.80
2022-07-31T04:25:54.338Z,14.88
2022-07-31T04:28:31.825Z,17.05
2022-07-31T04:31:00.547Z,13.98
2022-07-31T04:33:30.119Z,13.30
2022-07-31T04:36:00.621Z,16.85
2022-07-31T04:38:29.687Z,16.30
2022-07-31T04:40:59.231Z,12.60
2022-07-31T04:43:33.706Z,15.50
2022-07-31T04:46:02.396Z,17.27
2022-07-31T04:48:46.173Z,11.80
2022-07-31T04:51:22.309Z,15.45
2022-07-31T04:53:53.273Z,12.00
2022-07-31T04:56:36.277Z,11.93
2022-07-31T05:02:04.385Z,9.65
2022-07-31T05:05:00.175Z,9.18
2022-07-31T05:07:41.441Z,11.45
2022-07-31T05:10:32.167Z,14.02
2022-07-31T05:13:01.267Z,12.20
2022-07-31T05:15:31.565Z,13.43
2022-07-31T05:18:00.227Z,13.05
2022-07-31T05:21:13.280Z,10.75
2022-07-31T05:24:12.997Z,10.88
2022-07-31T05:27:16.493Z,11.07
2022-07-31T05:29:45.086Z,14.32
2022-07-31T05:32:19.890Z,11.05
2022-07-31T05:37:23.167Z,9.25
2022-07-31T05:39:56.495Z,9.68
2022-07-31T05:42:45.738Z,8.32
2022-07-31T05:45:41.819Z,11.35
2022-07-31T05:48:10.648Z,7.72
2022-07-31T05:50:39.896Z,8.93
2022-07-31T05:53:12.126Z,11.93
2022-07-31T05:56:05.844Z,3.47
2022-07-31T05:58:48.283Z,6.68
2022-07-31T06:01:18.296Z,6.82
2022-07-31T06:03:51.972Z,6.05
2022-07-31T06:06:58.142Z,6.60
2022-07-31T06:09:28.607Z,4.15
2022-07-31T06:11:58.578Z,9.73
2022-07-31T06:14:28.439Z,5.60
2022-07-31T06:17:12.991Z,4.07
2022-07-31T06:19:44.377Z,4.05
2022-07-31T06:22:14.499Z,2.50
2022-07-31T06:24:43.527Z,1.77
2022-07-31T06:27:26.096Z,1.55
2022-07-31T06:30:04.446Z,2.35
2022-07-31T06:32:33.213Z,0.77
2022-07-31T06:35:03.260Z,1.77
2022-07-31T06:37:57.548Z,2.70
2022-07-31T06:40:28.009Z,3.30
2022-07-31T06:43:23.705Z,1.20
2022-07-31T06:46:20.649Z,3.85
2022-07-31T06:49:09.539Z,1.25
2022-07-31T06:51:42.107Z,4.38
2022-07-31T06:54:14.440Z,4.22
2022-07-31T06:56:43.076Z,3.05
2022-07-31T06:59:40.688Z,1.95
2022-07-31T07:02:10.681Z,1.80
2022-07-31T07:04:57.821Z,1.35
2022-07-31T07:07:32.296Z,3.80
2022-07-31T07:10:02.740Z,2.30
2022-07-31T07:12:49.968Z,2.45
2022-07-31T07:15:23.724Z,2.88
2022-07-31T07:17:52.553Z,2.35
2022-07-31T07:20:29.665Z,1.90
2022-07-31T07:22:58.349Z,2.70
2022-07-31T07:25:42.940Z,2.70
2022-07-31T07:28:30.053Z,1.25
2022-07-31T07:31:04.033Z,2.45
2022-07-31T07:33:40.227Z,1.90
2022-07-31T07:36:24.232Z,1.17
2022-07-31T07:38:57.903Z,1.90
2022-07-31T07:41:26.780Z,2.65
2022-07-31T07:43:56.077Z,2.47
2022-07-31T07:46:31.626Z,3.55
2022-07-31T07:49:05.217Z,0.98
2022-07-31T07:52:08.349Z,1.85
2022-07-31T07:54:43.377Z,2.30
2022-07-31T07:57:39.335Z,1.35
2022-07-31T08:00:26.663Z,1.40
2022-07-31T08:05:50.609Z,2.70
2022-07-31T08:08:19.267Z,2.85
2022-07-31T08:10:51.115Z,1.42
2022-07-31T08:13:31.955Z,0.88
2022-07-31T08:16:24.412Z,1.35
2022-07-31T08:18:57.962Z,1.85
2022-07-31T08:21:27.544Z,1.35
2022-07-31T08:23:56.616Z,1.52
2022-07-31T08:26:27.282Z,6.25
2022-07-31T08:28:58.198Z,2.10
2022-07-31T08:31:38.136Z,8.48
2022-07-31T08:34:31.801Z,2.25
2022-07-31T08:37:59.940Z,4.85
2022-07-31T08:40:00.791Z,1.70
2022-07-31T08:42:29.526Z,2.08
2022-07-31T08:44:58.871Z,1.98
2022-07-31T08:47:34.123Z,4.38
2022-07-31T08:50:36.084Z,2.03
2022-07-31T08:53:08.347Z,2.88
2022-07-31T08:55:56.539Z,1.35
2022-07-31T08:58:31.047Z,2.85
2022-07-31T09:00:59.862Z,1.55
2022-07-31T09:03:28.658Z,1.20
2022-07-31T09:06:05.236Z,3.00
2022-07-31T09:08:37.360Z,2.08
2022-07-31T09:11:14.912Z,3.05
2022-07-31T09:14:05.513Z,1.77
2022-07-31T09:17:10.192Z,3.47
2022-07-31T09:19:51.892Z,3.25
2022-07-31T09:22:34.089Z,0.80
2022-07-31T09:25:12.308Z,1.13
2022-07-31T09:27:48.429Z,2.20
2022-07-31T09:30:18.025Z,1.55
2022-07-31T09:33:14.404Z,1.17
2022-07-31T09:36:16.665Z,0.90
2022-07-31T09:38:52.835Z,1.08
2022-07-31T09:42:02.021Z,3.65
2022-07-31T09:48:05.847Z,4.38
2022-07-31T09:50:37.008Z,4.10
2022-07-31T09:53:06.828Z,1.38
2022-07-31T09:55:38.259Z,4.32
2022-07-31T09:58:08.182Z,1.48
2022-07-31T10:00:42.567Z,3.78
2022-07-31T10:03:15.259Z,1.77
2022-07-31T10:05:46.127Z,2.55
2022-07-31T10:08:17.427Z,1.13
2022-07-31T10:11:04.690Z,12.05
2022-07-31T10:13:49.942Z,1.38
2022-07-31T10:16:19.248Z,4.78
2022-07-31T10:22:51.714Z,2.95
2022-07-31T10:25:27.797Z,3.95
2022-07-31T10:27:58.600Z,1.52
2022-07-31T10:30:53.202Z,3.08
2022-07-31T10:33:43.108Z,2.13
2022-07-31T10:37:11.192Z,0.90
2022-07-31T10:40:26.168Z,1.88
2022-07-31T10:43:22.395Z,2.45
2022-07-31T10:46:13.048Z,2.13
2022-07-31T10:48:56.603Z,3.42
2022-07-31T10:52:29.303Z,4.00
2022-07-31T10:55:41.099Z,3.97
2022-07-31T10:58:20.770Z,2.22
2022-07-31T11:00:53.604Z,2.92
2022-07-31T11:03:46.831Z,1.10
2022-07-31T11:07:19.968Z,1.10
2022-07-31T11:10:18.590Z,2.95
2022-07-31T11:13:06.488Z,1.85
2022-07-31T11:16:06.617Z,2.88
2022-07-31T11:18:41.455Z,3.97
2022-07-31T11:21:37.758Z,1.42
2022-07-31T11:24:05.051Z,1.13
2022-07-31T11:26:41.725Z,3.75
2022-07-31T11:30:01.736Z,2.67
2022-07-31T11:32:30.050Z,1.17
2022-07-31T11:35:00.124Z,1.48
2022-07-31T11:37:57.063Z,2.60
2022-07-31T11:41:15.147Z,2.92
2022-07-31T11:43:48.473Z,1.55
2022-07-31T11:46:26.254Z,1.20
2022-07-31T11:48:57.276Z,1.98
2022-07-31T11:51:28.560Z,2.67
2022-07-31T11:53:57.910Z,1.60
2022-07-31T11:56:28.387Z,1.35
2022-07-31T11:58:58.632Z,1.35
2022-07-31T12:01:29.275Z,2.78
2022-07-31T12:04:53.894Z,2.15
2022-07-31T12:07:22.954Z,1.85
2022-07-31T12:10:01.968Z,4.68
2022-07-31T12:12:34.608Z,3.58
2022-07-31T12:15:06.475Z,4.65
2022-07-31T12:17:36.957Z,1.15
2022-07-31T12:20:29.851Z,2.00
2022-07-31T12:23:05.148Z,4.05
2022-07-31T12:25:45.784Z,4.18
2022-07-31T12:28:15.450Z,5.25
2022-07-31T12:30:49.174Z,3.92
2022-07-31T12:33:17.867Z,4.60
2022-07-31T12:35:56.460Z,5.85
2022-07-31T12:38:47.822Z,2.47
2022-07-31T12:41:19.464Z,4.00
2022-07-31T12:43:51.168Z,3.75
2022-07-31T12:46:30.904Z,3.50
2022-07-31T12:49:04.115Z,8.43
2022-07-31T12:51:45.492Z,8.35
2022-07-31T12:54:20.001Z,2.72
2022-07-31T12:56:48.687Z,5.32
2022-07-31T13:02:14.022Z,3.55
2022-07-31T13:04:45.686Z,1.40
2022-07-31T13:07:16.817Z,3.08
2022-07-31T13:10:14.795Z,3.35
2022-07-31T13:12:40.402Z,2.65
2022-07-31T13:15:11.014Z,3.78
2022-07-31T13:17:43.743Z,5.10
2022-07-31T13:20:17.619Z,1.38
2022-07-31T13:22:47.825Z,1.92
2022-07-31T13:25:16.623Z,3.63
2022-07-31T13:27:45.215Z,3.38
2022-07-31T13:30:17.247Z,4.50
2022-07-31T13:32:50.367Z,5.88
2022-07-31T13:35:27.955Z,3.50
2022-07-31T13:38:00.288Z,2.55
2022-07-31T13:40:46.590Z,2.50
2022-07-31T13:43:17.396Z,3.55
2022-07-31T13:45:46.418Z,2.03
2022-07-31T13:48:16.598Z,3.78
2022-07-31T13:50:45.356Z,4.25
2022-07-31T13:53:15.384Z,2.17
2022-07-31T13:55:48.403Z,4.05
2022-07-31T13:58:21.801Z,9.80
2022-07-31T14:01:21.256Z,4.00
2022-07-31T14:03:49.869Z,1.63
2022-07-31T14:06:18.498Z,6.57
2022-07-31T14:08:51.773Z,3.92
2022-07-31T14:11:22.296Z,1.80
2022-07-31T14:13:52.315Z,1.70
2022-07-31T14:16:20.990Z,5.55
2022-07-31T14:18:52.340Z,3.08
2022-07-31T14:21:50.006Z,3.05
2022-07-31T14:24:27.711Z,3.97
2022-07-31T14:26:56.440Z,2.00
2022-07-31T14:29:28.014Z,2.05
2022-07-31T14:31:56.710Z,3.00
2022-07-31T14:34:57.624Z,4.07
2022-07-31T14:37:26.967Z,4.90
2022-07-31T14:40:20.546Z,6.03
2022-07-31T14:42:49.230Z,1.50
2022-07-31T14:45:17.833Z,2.30
2022-07-31T14:47:46.624Z,1.25
2022-07-31T14:50:19.688Z,2.83
2022-07-31T14:52:48.923Z,2.13
2022-07-31T14:55:20.062Z,2.65
2022-07-31T14:57:48.743Z,3.40
2022-07-31T15:00:17.644Z,1.95
2022-07-31T15:02:49.528Z,2.58
2022-07-31T15:06:39.984Z,3.40
2022-07-31T15:08:07.103Z,4.93
2022-07-31T15:10:37.230Z,6.10
2022-07-31T15:13:05.928Z,29.63
2022-07-31T15:15:34.762Z,8.05
2022-07-31T15:18:03.371Z,3.42
2022-07-31T15:20:33.296Z,2.40
2022-07-31T15:23:02.052Z,2.83
2022-07-31T15:25:30.902Z,2.95
2022-07-31T15:28:01.145Z,2.33
2022-07-31T15:30:33.921Z,1.38
2022-07-31T15:33:02.615Z,2.13
2022-07-31T15:35:31.402Z,2.75
2022-07-31T15:38:00.518Z,3.65
2022-07-31T15:40:29.381Z,2.80
2022-07-31T15:42:59.050Z,2.92
2022-07-31T15:45:29.295Z,7.05
2022-07-31T15:47:58.092Z,5.07
2022-07-31T15:50:29.524Z,1.77
2022-07-31T15:52:59.463Z,2.97
2022-07-31T15:55:29.857Z,3.15
2022-07-31T15:57:58.738Z,3.22
2022-07-31T16:00:29.956Z,2.25
2022-07-31T16:02:59.651Z,2.25
2022-07-31T16:05:37.079Z,6.60
2022-07-31T16:08:29.795Z,2.25
2022-07-31T16:10:58.550Z,2.35
2022-07-31T16:13:27.474Z,4.13
2022-07-31T16:15:57.757Z,4.20
2022-07-31T16:18:26.422Z,4.80
2022-07-31T16:20:55.160Z,3.72
2022-07-31T16:23:25.871Z,2.50
2022-07-31T16:25:54.663Z,1.60
2022-07-31T16:28:23.590Z,3.90
2022-07-31T16:31:29.780Z,1.35
2022-07-31T16:34:01.081Z,1.90
2022-07-31T16:36:58.567Z,2.10
2022-07-31T16:39:54.068Z,2.10
2022-07-31T16:42:22.732Z,1.98
2022-07-31T16:44:54.692Z,4.38
2022-07-31T16:47:45.766Z,1.17
2022-07-31T16:50:16.504Z,1.88
2022-07-31T16:52:50.137Z,2.47
2022-07-31T16:55:21.662Z,4.93
2022-07-31T16:58:11.702Z,2.90
2022-07-31T17:00:42.741Z,3.05
2022-07-31T17:03:59.235Z,6.60
2022-07-31T17:06:01.401Z,4.03
2022-07-31T17:08:30.250Z,4.95
2022-07-31T17:10:59.160Z,2.25
2022-07-31T17:13:27.842Z,1.80
2022-07-31T17:15:56.599Z,3.85
2022-07-31T17:18:26.221Z,3.95
2022-07-31T17:23:52.405Z,3.85
2022-07-31T17:26:22.281Z,3.08
2022-07-31T17:28:52.020Z,1.27
2022-07-31T17:31:22.858Z,4.07
2022-07-31T17:34:00.515Z,3.92
2022-07-31T17:36:32.244Z,3.83
2022-07-31T17:39:02.275Z,3.25
2022-07-31T17:41:31.026Z,6.70
2022-07-31T17:43:59.778Z,3.05
2022-07-31T17:46:36.635Z,2.83
2022-07-31T17:49:19.563Z,3.72
2022-07-31T17:52:15.121Z,1.88
2022-07-31T17:54:45.322Z,2.47
2022-07-31T17:57:13.971Z,3.72
2022-07-31T17:59:42.605Z,4.40
2022-07-31T18:02:11.616Z,6.85
2022-07-31T18:04:46.542Z,2.25
2022-07-31T18:07:40.467Z,5.57
2022-07-31T18:10:23.806Z,5.45
2022-07-31T18:12:57.435Z,4.65
2022-07-31T18:15:34.741Z,2.08
2022-07-31T18:18:05.114Z,4.75
2022-07-31T18:20:34.232Z,2.75
2022-07-31T18:23:02.947Z,3.17
2022-07-31T18:25:34.775Z,2.58
2022-07-31T18:28:03.330Z,4.75
2022-07-31T18:30:35.896Z,3.50
2022-07-31T18:33:32.936Z,2.78
2022-07-31T18:36:02.246Z,3.38
2022-07-31T18:38:30.904Z,6.22
2022-07-31T18:41:04.969Z,5.40
2022-07-31T18:43:34.595Z,3.65
2022-07-31T18:46:03.279Z,5.43
2022-07-31T18:48:31.874Z,7.75
2022-07-31T18:51:05.317Z,3.10
2022-07-31T18:53:35.941Z,4.47
2022-07-31T18:56:06.360Z,4.13
2022-07-31T18:58:35.801Z,6.32
2022-07-31T19:01:06.658Z,5.97
2022-07-31T19:04:00.715Z,5.47
2022-07-31T19:06:31.502Z,5.60
2022-07-31T19:09:00.195Z,4.38
2022-07-31T19:11:34.034Z,3.60
2022-07-31T19:14:03.487Z,2.35
2022-07-31T19:17:00.027Z,3.50
2022-07-31T19:19:55.178Z,4.32
2022-07-31T19:22:33.738Z,11.02
2022-07-31T19:27:57.090Z,6.00
2022-07-31T19:30:51.215Z,4.78
2022-07-31T19:33:22.784Z,5.00
2022-07-31T19:35:56.922Z,4.35
2022-07-31T19:38:29.544Z,2.80
2022-07-31T19:41:26.687Z,3.95
2022-07-31T19:43:56.735Z,4.60
2022-07-31T19:46:26.612Z,3.92
2022-07-31T19:48:55.318Z,5.78
2022-07-31T19:51:26.230Z,3.88
2022-07-31T19:53:55.816Z,5.15
2022-07-31T19:56:24.582Z,7.75
2022-07-31T19:58:53.361Z,5.93
2022-07-31T20:01:27.006Z,6.75
2022-07-31T20:03:59.895Z,4.97
2022-07-31T20:06:28.988Z,4.75
2022-07-31T20:08:58.850Z,5.93
2022-07-31T20:11:52.082Z,5.28
2022-07-31T20:17:14.074Z,4.75
2022-07-31T20:20:11.829Z,5.68
2022-07-31T20:22:32.786Z,3.60
2022-07-31T20:25:02.334Z,7.20
2022-07-31T20:27:52.390Z,4.38
2022-07-31T20:30:22.273Z,6.53
2022-07-31T20:32:53.081Z,7.35
2022-07-31T20:35:48.598Z,5.32
2022-07-31T20:38:19.114Z,4.10
2022-07-31T20:40:53.485Z,4.97
2022-07-31T20:43:31.487Z,4.72
2022-07-31T20:46:00.776Z,5.07
2022-07-31T20:48:32.953Z,7.68
2022-07-31T20:51:05.112Z,3.20
2022-07-31T20:53:34.863Z,6.60
2022-07-31T20:56:03.494Z,4.65
2022-07-31T20:58:32.471Z,7.30
2022-07-31T21:01:05.245Z,4.10
2022-07-31T21:03:36.307Z,3.75
2022-07-31T21:06:05.731Z,6.63
2022-07-31T21:08:34.873Z,7.35
2022-07-31T21:11:12.719Z,5.82
2022-07-31T21:13:42.173Z,9.95
2022-07-31T21:16:10.847Z,7.22
2022-07-31T21:18:43.244Z,4.32
2022-07-31T21:21:12.623Z,4.03
2022-07-31T21:23:41.345Z,3.97
2022-07-31T21:26:10.407Z,7.35
2022-07-31T21:28:39.658Z,6.43
2022-07-31T21:31:12.121Z,4.00
2022-07-31T21:33:42.760Z,6.50
2022-07-31T21:36:14.400Z,7.20
2022-07-31T21:38:49.352Z,3.97
2022-07-31T21:41:20.071Z,4.68
2022-07-31T21:43:58.757Z,4.63
2022-07-31T21:46:31.474Z,4.13
2022-07-31T21:49:01.838Z,3.55
2022-07-31T21:51:31.462Z,3.95
2022-07-31T21:54:00.098Z,6.60
2022-07-31T21:56:29.551Z,4.10
2022-07-31T21:58:59.131Z,4.25
2022-07-31T22:01:27.890Z,3.92
2022-07-31T22:03:57.127Z,6.05
2022-07-31T22:06:44.135Z,5.72
2022-07-31T22:09:13.131Z,3.58
2022-07-31T22:11:55.188Z,3.70
2022-07-31T22:17:04.265Z,4.35
2022-07-31T22:19:36.591Z,4.65
2022-07-31T22:22:15.167Z,10.93
2022-07-31T22:25:12.290Z,9.00
2022-07-31T22:27:59.856Z,5.40
2022-07-31T22:30:30.961Z,5.30
2022-07-31T22:33:00.835Z,2.97
2022-07-31T22:35:30.452Z,5.47
2022-07-31T22:38:00.780Z,4.15
2022-07-31T22:40:31.260Z,5.88
2022-07-31T22:43:02.466Z,4.93
2022-07-31T22:45:32.916Z,4.43
2022-07-31T22:48:03.968Z,5.65
2022-07-31T22:50:36.434Z,5.95
2022-07-31T22:53:06.543Z,8.82
2022-07-31T22:55:35.389Z,5.40
2022-07-31T22:58:04.062Z,7.28
2022-07-31T23:00:36.869Z,4.70
2022-07-31T23:03:05.745Z,6.53
2022-07-31T23:06:03.491Z,4.85
2022-07-31T23:08:27.556Z,3.83
2022-07-31T23:10:56.575Z,6.13
2022-07-31T23:13:26.395Z,4.53
2022-07-31T23:15:55.000Z,6.40
2022-07-31T23:18:23.919Z,6.38
2022-07-31T23:20:58.454Z,4.75
2022-07-31T23:23:53.452Z,4.78
2022-07-31T23:26:24.180Z,3.85
2022-07-31T23:28:54.184Z,4.35
2022-07-31T23:31:23.689Z,5.07
2022-07-31T23:33:52.966Z,6.53
2022-07-31T23:36:21.599Z,5.82
2022-07-31T23:38:52.876Z,2.97
2022-07-31T23:41:37.158Z,4.22
2022-07-31T23:44:10.800Z,5.75
2022-07-31T23:46:42.675Z,3.33
2022-07-31T23:49:13.876Z,5.30
2022-07-31T23:51:45.227Z,4.57
2022-07-31T23:57:09.101Z,5.57
